Terminal Aerodrome Forecast
Issued by NWS Blacksburg, VA

Current Version | Previous Version | Graphics & Text | Print | Product List | Glossary On
Versions: 1 2 3 4 5 6 7 8 9 10 11 12 13 14 15 16 17
000
FTUS41 KRNK 181419 AAA
TAFBLF
TAF AMD
KBLF 181419Z 1814/1912 28012G18KT P6SM SCT014
     FM181800 30012G24KT P6SM BKN020
     FM182300 29007KT P6SM BKN012
     FM190200 28005KT P6SM SCT012=

USA.gov is the U.S. government's official web portal to all federal, state and local government web resources and services.